sensor_id;sensor_type;location;lat;lon;timestamp;P1;durP1;ratioP1;P2;durP2;ratioP2
938;SDS011;456;53.584;9.968;2024-01-10T00:00:29;7.87;;;7.17;;
938;SDS011;456;53.584;9.968;2024-01-10T00:02:55;8.20;;;7.60;;
938;SDS011;456;53.584;9.968;2024-01-10T00:05:21;8.17;;;7.40;;
938;SDS011;456;53.584;9.968;2024-01-10T00:07:47;8.50;;;7.70;;
938;SDS011;456;53.584;9.968;2024-01-10T00:10:13;7.47;;;6.87;;
938;SDS011;456;53.584;9.968;2024-01-10T00:12:39;7.47;;;6.80;;
938;SDS011;456;53.584;9.968;2024-01-10T00:15:05;7.50;;;7.00;;
938;SDS011;456;53.584;9.968;2024-01-10T00:17:31;8.57;;;7.80;;
938;SDS011;456;53.584;9.968;2024-01-10T00:19:57;8.50;;;7.80;;
938;SDS011;456;53.584;9.968;2024-01-10T00:22:23;7.97;;;7.27;;
938;SDS011;456;53.584;9.968;2024-01-10T00:24:49;7.27;;;6.60;;
938;SDS011;456;53.584;9.968;2024-01-10T00:27:15;7.33;;;6.73;;
938;SDS011;456;53.584;9.968;2024-01-10T00:29:41;7.87;;;7.17;;
938;SDS011;456;53.584;9.968;2024-01-10T00:32:08;8.30;;;7.60;;
938;SDS011;456;53.584;9.968;2024-01-10T00:34:34;7.70;;;6.90;;
938;SDS011;456;53.584;9.968;2024-01-10T00:36:59;7.17;;;6.60;;
938;SDS011;456;53.584;9.968;2024-01-10T00:39:25;7.70;;;7.10;;
938;SDS011;456;53.584;9.968;2024-01-10T00:41:51;8.10;;;7.40;;
938;SDS011;456;53.584;9.968;2024-01-10T00:44:17;7.27;;;6.67;;
938;SDS011;456;53.584;9.968;2024-01-10T00:46:44;7.50;;;6.70;;
938;SDS011;456;53.584;9.968;2024-01-10T00:49:10;6.80;;;6.20;;
938;SDS011;456;53.584;9.968;2024-01-10T00:51:35;7.27;;;6.67;;
938;SDS011;456;53.584;9.968;2024-01-10T00:54:01;7.17;;;6.60;;
938;SDS011;456;53.584;9.968;2024-01-10T00:56:27;7.17;;;6.40;;
938;SDS011;456;53.584;9.968;2024-01-10T00:58:53;7.30;;;6.70;;
938;SDS011;456;53.584;9.968;2024-01-10T01:01:22;6.57;;;5.97;;
938;SDS011;456;53.584;9.968;2024-01-10T01:03:49;6.80;;;6.20;;
938;SDS011;456;53.584;9.968;2024-01-10T01:06:15;5.87;;;5.37;;
938;SDS011;456;53.584;9.968;2024-01-10T01:08:41;7.13;;;6.47;;
938;SDS011;456;53.584;9.968;2024-01-10T01:11:07;6.90;;;6.30;;
938;SDS011;456;53.584;9.968;2024-01-10T01:13:33;7.03;;;6.33;;
938;SDS011;456;53.584;9.968;2024-01-10T01:15:59;7.00;;;6.40;;
938;SDS011;456;53.584;9.968;2024-01-10T01:18:25;7.00;;;6.33;;
938;SDS011;456;53.584;9.968;2024-01-10T01:20:51;8.00;;;7.30;;
938;SDS011;456;53.584;9.968;2024-01-10T01:23:17;7.33;;;6.63;;
938;SDS011;456;53.584;9.968;2024-01-10T01:25:44;7.03;;;6.33;;
938;SDS011;456;53.584;9.968;2024-01-10T01:28:10;7.17;;;6.57;;
938;SDS011;456;53.584;9.968;2024-01-10T01:30:36;8.23;;;7.43;;
938;SDS011;456;53.584;9.968;2024-01-10T01:33:04;7.20;;;6.60;;
938;SDS011;456;53.584;9.968;2024-01-10T01:35:30;7.30;;;6.63;;
938;SDS011;456;53.584;9.968;2024-01-10T01:37:56;8.00;;;7.37;;
938;SDS011;456;53.584;9.968;2024-01-10T01:40:22;7.53;;;6.93;;
938;SDS011;456;53.584;9.968;2024-01-10T01:42:48;8.47;;;7.67;;
938;SDS011;456;53.584;9.968;2024-01-10T01:45:15;8.60;;;7.80;;
938;SDS011;456;53.584;9.968;2024-01-10T01:47:41;7.43;;;6.83;;
938;SDS011;456;53.584;9.968;2024-01-10T01:50:08;7.40;;;6.80;;
938;SDS011;456;53.584;9.968;2024-01-10T01:52:34;7.77;;;7.13;;
938;SDS011;456;53.584;9.968;2024-01-10T01:55:00;7.73;;;7.03;;
938;SDS011;456;53.584;9.968;2024-01-10T01:57:26;7.50;;;6.77;;
938;SDS011;456;53.584;9.968;2024-01-10T01:59:52;7.33;;;6.73;;
938;SDS011;456;53.584;9.968;2024-01-10T02:02:18;7.73;;;7.13;;
938;SDS011;456;53.584;9.968;2024-01-10T02:04:46;9.30;;;8.43;;
938;SDS011;456;53.584;9.968;2024-01-10T02:07:12;8.00;;;7.27;;
938;SDS011;456;53.584;9.968;2024-01-10T02:09:38;8.67;;;7.83;;
938;SDS011;456;53.584;9.968;2024-01-10T02:12:04;7.60;;;7.00;;
938;SDS011;456;53.584;9.968;2024-01-10T02:14:30;7.53;;;6.83;;
938;SDS011;456;53.584;9.968;2024-01-10T02:16:56;8.70;;;7.90;;
938;SDS011;456;53.584;9.968;2024-01-10T02:19:23;8.57;;;7.87;;
938;SDS011;456;53.584;9.968;2024-01-10T02:21:49;7.67;;;7.07;;
938;SDS011;456;53.584;9.968;2024-01-10T02:24:15;7.40;;;6.70;;
938;SDS011;456;53.584;9.968;2024-01-10T02:26:41;8.00;;;7.30;;
938;SDS011;456;53.584;9.968;2024-01-10T02:29:07;8.27;;;7.57;;
938;SDS011;456;53.584;9.968;2024-01-10T02:31:33;7.43;;;6.83;;
938;SDS011;456;53.584;9.968;2024-01-10T02:33:59;7.30;;;6.60;;
938;SDS011;456;53.584;9.968;2024-01-10T02:36:25;8.30;;;7.53;;
938;SDS011;456;53.584;9.968;2024-01-10T02:38:51;7.50;;;6.80;;
938;SDS011;456;53.584;9.968;2024-01-10T02:41:17;7.90;;;7.20;;
938;SDS011;456;53.584;9.968;2024-01-10T02:43:43;8.00;;;7.20;;
938;SDS011;456;53.584;9.968;2024-01-10T02:46:09;7.80;;;6.90;;
938;SDS011;456;53.584;9.968;2024-01-10T02:48:35;7.60;;;6.90;;
938;SDS011;456;53.584;9.968;2024-01-10T02:51:01;7.40;;;6.70;;
938;SDS011;456;53.584;9.968;2024-01-10T02:53:27;10.20;;;7.97;;
938;SDS011;456;53.584;9.968;2024-01-10T02:55:55;7.43;;;6.73;;
938;SDS011;456;53.584;9.968;2024-01-10T02:58:21;8.77;;;7.97;;
938;SDS011;456;53.584;9.968;2024-01-10T03:00:50;7.77;;;6.97;;
938;SDS011;456;53.584;9.968;2024-01-10T03:03:16;7.43;;;6.73;;
938;SDS011;456;53.584;9.968;2024-01-10T03:05:42;7.80;;;7.10;;
938;SDS011;456;53.584;9.968;2024-01-10T03:08:08;7.70;;;7.00;;
938;SDS011;456;53.584;9.968;2024-01-10T03:10:34;7.40;;;6.80;;
938;SDS011;456;53.584;9.968;2024-01-10T03:13:00;7.47;;;6.77;;
938;SDS011;456;53.584;9.968;2024-01-10T03:15:26;7.57;;;6.97;;
938;SDS011;456;53.584;9.968;2024-01-10T03:17:52;7.30;;;6.70;;
938;SDS011;456;53.584;9.968;2024-01-10T03:20:18;7.67;;;6.97;;
938;SDS011;456;53.584;9.968;2024-01-10T03:22:44;7.40;;;6.80;;
938;SDS011;456;53.584;9.968;2024-01-10T03:25:10;7.10;;;6.50;;
938;SDS011;456;53.584;9.968;2024-01-10T03:27:36;6.80;;;6.20;;
938;SDS011;456;53.584;9.968;2024-01-10T03:30:02;6.77;;;6.17;;
938;SDS011;456;53.584;9.968;2024-01-10T03:32:28;6.57;;;5.97;;
938;SDS011;456;53.584;9.968;2024-01-10T03:34:54;6.90;;;6.30;;
938;SDS011;456;53.584;9.968;2024-01-10T03:37:20;6.90;;;6.20;;
938;SDS011;456;53.584;9.968;2024-01-10T03:39:46;6.37;;;5.77;;
938;SDS011;456;53.584;9.968;2024-01-10T03:42:12;6.60;;;6.07;;
938;SDS011;456;53.584;9.968;2024-01-10T03:44:40;7.10;;;6.40;;
938;SDS011;456;53.584;9.968;2024-01-10T03:47:06;6.97;;;6.33;;
938;SDS011;456;53.584;9.968;2024-01-10T03:49:32;6.23;;;5.70;;
938;SDS011;456;53.584;9.968;2024-01-10T03:51:58;6.40;;;5.80;;
938;SDS011;456;53.584;9.968;2024-01-10T03:54:24;6.90;;;6.30;;
938;SDS011;456;53.584;9.968;2024-01-10T03:56:50;7.13;;;5.40;;
938;SDS011;456;53.584;9.968;2024-01-10T03:59:16;6.93;;;6.23;;
938;SDS011;456;53.584;9.968;2024-01-10T04:01:42;6.00;;;5.40;;
938;SDS011;456;53.584;9.968;2024-01-10T04:04:08;6.93;;;6.33;;
938;SDS011;456;53.584;9.968;2024-01-10T04:06:34;6.77;;;6.17;;
938;SDS011;456;53.584;9.968;2024-01-10T04:09:01;6.57;;;5.97;;
938;SDS011;456;53.584;9.968;2024-01-10T04:11:27;7.00;;;6.30;;
938;SDS011;456;53.584;9.968;2024-01-10T04:13:53;7.13;;;6.47;;
938;SDS011;456;53.584;9.968;2024-01-10T04:16:19;6.70;;;6.20;;
938;SDS011;456;53.584;9.968;2024-01-10T04:18:46;7.03;;;6.43;;
938;SDS011;456;53.584;9.968;2024-01-10T04:21:12;6.77;;;6.13;;
938;SDS011;456;53.584;9.968;2024-01-10T04:23:38;7.40;;;6.77;;
938;SDS011;456;53.584;9.968;2024-01-10T04:26:04;7.93;;;7.23;;
938;SDS011;456;53.584;9.968;2024-01-10T04:28:30;6.67;;;6.10;;
938;SDS011;456;53.584;9.968;2024-01-10T04:30:56;7.33;;;6.63;;
938;SDS011;456;53.584;9.968;2024-01-10T04:33:23;7.07;;;6.37;;
938;SDS011;456;53.584;9.968;2024-01-10T04:35:48;7.90;;;7.10;;
938;SDS011;456;53.584;9.968;2024-01-10T04:38:14;7.07;;;6.47;;
938;SDS011;456;53.584;9.968;2024-01-10T04:40:40;7.40;;;6.67;;
938;SDS011;456;53.584;9.968;2024-01-10T04:43:06;6.97;;;6.30;;
938;SDS011;456;53.584;9.968;2024-01-10T04:45:32;8.40;;;7.60;;
938;SDS011;456;53.584;9.968;2024-01-10T04:47:59;7.67;;;6.87;;
938;SDS011;456;53.584;9.968;2024-01-10T04:50:25;8.03;;;7.33;;
938;SDS011;456;53.584;9.968;2024-01-10T04:52:51;7.13;;;6.53;;
938;SDS011;456;53.584;9.968;2024-01-10T04:55:17;8.00;;;7.30;;
938;SDS011;456;53.584;9.968;2024-01-10T04:57:43;7.50;;;6.70;;
938;SDS011;456;53.584;9.968;2024-01-10T05:00:09;8.20;;;7.40;;
938;SDS011;456;53.584;9.968;2024-01-10T05:02:35;7.07;;;6.47;;
938;SDS011;456;53.584;9.968;2024-01-10T05:05:01;8.80;;;8.00;;
938;SDS011;456;53.584;9.968;2024-01-10T05:07:29;8.63;;;7.93;;
938;SDS011;456;53.584;9.968;2024-01-10T05:09:55;8.00;;;7.20;;
938;SDS011;456;53.584;9.968;2024-01-10T05:12:21;8.50;;;7.70;;
938;SDS011;456;53.584;9.968;2024-01-10T05:14:47;8.80;;;7.90;;
938;SDS011;456;53.584;9.968;2024-01-10T05:17:13;8.20;;;7.50;;
938;SDS011;456;53.584;9.968;2024-01-10T05:19:39;8.83;;;8.03;;
938;SDS011;456;53.584;9.968;2024-01-10T05:22:05;9.37;;;8.47;;
938;SDS011;456;53.584;9.968;2024-01-10T05:24:31;8.67;;;7.80;;
938;SDS011;456;53.584;9.968;2024-01-10T05:26:57;8.40;;;7.60;;
938;SDS011;456;53.584;9.968;2024-01-10T05:29:23;8.87;;;8.07;;
938;SDS011;456;53.584;9.968;2024-01-10T05:31:50;9.67;;;8.70;;
938;SDS011;456;53.584;9.968;2024-01-10T05:34:16;8.87;;;8.10;;
938;SDS011;456;53.584;9.968;2024-01-10T05:36:42;10.03;;;8.13;;
938;SDS011;456;53.584;9.968;2024-01-10T05:39:08;9.27;;;8.37;;
938;SDS011;456;53.584;9.968;2024-01-10T05:41:34;8.40;;;7.37;;
938;SDS011;456;53.584;9.968;2024-01-10T05:43:59;8.77;;;6.90;;
938;SDS011;456;53.584;9.968;2024-01-10T05:46:25;8.93;;;7.10;;
938;SDS011;456;53.584;9.968;2024-01-10T05:48:53;7.67;;;6.83;;
938;SDS011;456;53.584;9.968;2024-01-10T05:51:18;10.33;;;7.30;;
938;SDS011;456;53.584;9.968;2024-01-10T05:53:44;7.83;;;7.03;;
938;SDS011;456;53.584;9.968;2024-01-10T05:56:10;7.87;;;7.07;;
938;SDS011;456;53.584;9.968;2024-01-10T05:58:35;7.73;;;6.80;;
938;SDS011;456;53.584;9.968;2024-01-10T06:01:01;11.73;;;7.17;;
938;SDS011;456;53.584;9.968;2024-01-10T06:03:27;10.10;;;7.50;;
938;SDS011;456;53.584;9.968;2024-01-10T06:05:53;8.30;;;7.40;;
938;SDS011;456;53.584;9.968;2024-01-10T06:08:19;13.23;;;7.10;;
938;SDS011;456;53.584;9.968;2024-01-10T06:10:47;9.67;;;6.83;;
938;SDS011;456;53.584;9.968;2024-01-10T06:13:13;9.17;;;7.00;;
938;SDS011;456;53.584;9.968;2024-01-10T06:15:39;9.60;;;6.97;;
938;SDS011;456;53.584;9.968;2024-01-10T06:18:06;7.53;;;6.27;;
938;SDS011;456;53.584;9.968;2024-01-10T06:20:32;8.87;;;6.20;;
938;SDS011;456;53.584;9.968;2024-01-10T06:23:00;7.10;;;6.40;;
938;SDS011;456;53.584;9.968;2024-01-10T06:25:26;7.67;;;6.87;;
938;SDS011;456;53.584;9.968;2024-01-10T06:27:52;7.10;;;6.50;;
938;SDS011;456;53.584;9.968;2024-01-10T06:30:18;7.10;;;6.47;;
938;SDS011;456;53.584;9.968;2024-01-10T06:32:44;9.50;;;6.20;;
938;SDS011;456;53.584;9.968;2024-01-10T06:35:10;6.83;;;6.23;;
938;SDS011;456;53.584;9.968;2024-01-10T06:37:37;7.07;;;6.37;;
938;SDS011;456;53.584;9.968;2024-01-10T06:40:03;7.03;;;6.33;;
938;SDS011;456;53.584;9.968;2024-01-10T06:42:30;6.57;;;5.97;;
938;SDS011;456;53.584;9.968;2024-01-10T06:44:56;6.80;;;6.17;;
938;SDS011;456;53.584;9.968;2024-01-10T06:47:22;6.40;;;5.80;;
938;SDS011;456;53.584;9.968;2024-01-10T06:49:48;6.90;;;5.40;;
938;SDS011;456;53.584;9.968;2024-01-10T06:52:14;6.70;;;6.10;;
938;SDS011;456;53.584;9.968;2024-01-10T06:54:41;6.27;;;5.67;;
938;SDS011;456;53.584;9.968;2024-01-10T06:57:07;5.63;;;5.13;;
938;SDS011;456;53.584;9.968;2024-01-10T06:59:33;6.70;;;5.27;;
938;SDS011;456;53.584;9.968;2024-01-10T07:01:59;6.23;;;5.40;;
938;SDS011;456;53.584;9.968;2024-01-10T07:04:26;5.73;;;5.20;;
938;SDS011;456;53.584;9.968;2024-01-10T07:06:53;5.40;;;5.00;;
938;SDS011;456;53.584;9.968;2024-01-10T07:09:19;6.90;;;5.30;;
938;SDS011;456;53.584;9.968;2024-01-10T07:11:48;5.17;;;4.77;;
938;SDS011;456;53.584;9.968;2024-01-10T07:14:15;5.43;;;4.93;;
938;SDS011;456;53.584;9.968;2024-01-10T07:16:41;4.77;;;4.37;;
938;SDS011;456;53.584;9.968;2024-01-10T07:19:10;4.40;;;4.00;;
938;SDS011;456;53.584;9.968;2024-01-10T07:21:42;4.73;;;4.33;;
938;SDS011;456;53.584;9.968;2024-01-10T07:24:08;5.63;;;5.13;;
938;SDS011;456;53.584;9.968;2024-01-10T07:26:35;6.03;;;5.47;;
938;SDS011;456;53.584;9.968;2024-01-10T07:29:04;5.43;;;4.93;;
938;SDS011;456;53.584;9.968;2024-01-10T07:31:33;5.13;;;4.63;;
938;SDS011;456;53.584;9.968;2024-01-10T07:34:00;5.60;;;5.07;;
938;SDS011;456;53.584;9.968;2024-01-10T07:36:26;5.33;;;4.93;;
938;SDS011;456;53.584;9.968;2024-01-10T07:38:57;6.07;;;5.00;;
938;SDS011;456;53.584;9.968;2024-01-10T07:41:25;5.80;;;5.30;;
938;SDS011;456;53.584;9.968;2024-01-10T07:43:51;6.23;;;5.67;;
938;SDS011;456;53.584;9.968;2024-01-10T07:46:17;5.40;;;4.90;;
938;SDS011;456;53.584;9.968;2024-01-10T07:48:43;5.47;;;4.97;;
938;SDS011;456;53.584;9.968;2024-01-10T07:51:09;5.40;;;4.90;;
938;SDS011;456;53.584;9.968;2024-01-10T07:53:35;5.40;;;4.90;;
938;SDS011;456;53.584;9.968;2024-01-10T07:56:03;5.53;;;5.03;;
938;SDS011;456;53.584;9.968;2024-01-10T07:58:29;5.10;;;4.70;;
938;SDS011;456;53.584;9.968;2024-01-10T08:00:55;5.40;;;4.90;;
938;SDS011;456;53.584;9.968;2024-01-10T08:03:21;5.77;;;5.30;;
938;SDS011;456;53.584;9.968;2024-01-10T08:05:47;5.67;;;5.17;;
938;SDS011;456;53.584;9.968;2024-01-10T08:08:14;4.20;;;3.77;;
938;SDS011;456;53.584;9.968;2024-01-10T08:10:41;5.23;;;4.80;;
938;SDS011;456;53.584;9.968;2024-01-10T08:13:07;4.80;;;4.40;;
938;SDS011;456;53.584;9.968;2024-01-10T08:15:33;4.63;;;4.23;;
938;SDS011;456;53.584;9.968;2024-01-10T08:18:00;4.77;;;4.37;;
938;SDS011;456;53.584;9.968;2024-01-10T08:20:29;4.50;;;4.20;;
938;SDS011;456;53.584;9.968;2024-01-10T08:22:55;5.00;;;4.43;;
938;SDS011;456;53.584;9.968;2024-01-10T08:25:22;4.70;;;4.30;;
938;SDS011;456;53.584;9.968;2024-01-10T08:27:48;4.90;;;4.33;;
938;SDS011;456;53.584;9.968;2024-01-10T08:30:14;6.23;;;4.97;;
938;SDS011;456;53.584;9.968;2024-01-10T08:32:40;4.90;;;4.50;;
938;SDS011;456;53.584;9.968;2024-01-10T08:35:07;4.77;;;4.27;;
938;SDS011;456;53.584;9.968;2024-01-10T08:37:36;4.97;;;4.27;;
938;SDS011;456;53.584;9.968;2024-01-10T08:40:02;4.90;;;4.40;;
938;SDS011;456;53.584;9.968;2024-01-10T08:42:34;5.00;;;4.23;;
938;SDS011;456;53.584;9.968;2024-01-10T08:45:01;4.47;;;4.07;;
938;SDS011;456;53.584;9.968;2024-01-10T08:47:27;5.60;;;4.40;;
938;SDS011;456;53.584;9.968;2024-01-10T08:49:56;5.03;;;4.53;;
938;SDS011;456;53.584;9.968;2024-01-10T08:52:22;5.10;;;4.70;;
938;SDS011;456;53.584;9.968;2024-01-10T08:54:48;6.77;;;4.83;;
938;SDS011;456;53.584;9.968;2024-01-10T08:57:14;5.90;;;5.03;;
938;SDS011;456;53.584;9.968;2024-01-10T08:59:43;5.53;;;5.03;;
938;SDS011;456;53.584;9.968;2024-01-10T09:02:09;5.03;;;4.53;;
938;SDS011;456;53.584;9.968;2024-01-10T09:04:35;9.90;;;4.80;;
938;SDS011;456;53.584;9.968;2024-01-10T09:07:01;5.97;;;5.00;;
938;SDS011;456;53.584;9.968;2024-01-10T09:09:27;7.43;;;4.67;;
938;SDS011;456;53.584;9.968;2024-01-10T09:11:53;5.43;;;4.00;;
938;SDS011;456;53.584;9.968;2024-01-10T09:14:19;4.90;;;4.50;;
938;SDS011;456;53.584;9.968;2024-01-10T09:16:45;6.10;;;4.60;;
938;SDS011;456;53.584;9.968;2024-01-10T09:19:11;4.70;;;3.80;;
938;SDS011;456;53.584;9.968;2024-01-10T09:21:37;12.13;;;4.80;;
938;SDS011;456;53.584;9.968;2024-01-10T09:24:03;5.77;;;5.27;;
938;SDS011;456;53.584;9.968;2024-01-10T09:26:33;3.80;;;3.50;;
938;SDS011;456;53.584;9.968;2024-01-10T09:28:59;5.03;;;4.40;;
938;SDS011;456;53.584;9.968;2024-01-10T09:31:25;5.93;;;4.60;;
938;SDS011;456;53.584;9.968;2024-01-10T09:33:51;3.90;;;3.50;;
938;SDS011;456;53.584;9.968;2024-01-10T09:36:17;6.27;;;3.80;;
938;SDS011;456;53.584;9.968;2024-01-10T09:38:43;6.60;;;4.50;;
938;SDS011;456;53.584;9.968;2024-01-10T09:41:09;4.30;;;3.90;;
938;SDS011;456;53.584;9.968;2024-01-10T09:43:38;4.83;;;4.30;;
938;SDS011;456;53.584;9.968;2024-01-10T09:46:04;4.97;;;4.47;;
938;SDS011;456;53.584;9.968;2024-01-10T09:48:32;4.33;;;3.93;;
938;SDS011;456;53.584;9.968;2024-01-10T09:50:58;4.63;;;3.90;;
938;SDS011;456;53.584;9.968;2024-01-10T09:53:25;4.80;;;4.30;;
938;SDS011;456;53.584;9.968;2024-01-10T09:55:57;4.57;;;4.17;;
938;SDS011;456;53.584;9.968;2024-01-10T09:58:25;4.87;;;4.37;;
938;SDS011;456;53.584;9.968;2024-01-10T10:00:51;5.00;;;4.50;;
938;SDS011;456;53.584;9.968;2024-01-10T10:03:17;4.00;;;3.60;;
938;SDS011;456;53.584;9.968;2024-01-10T10:05:43;4.63;;;4.20;;
938;SDS011;456;53.584;9.968;2024-01-10T10:08:13;4.70;;;4.30;;
938;SDS011;456;53.584;9.968;2024-01-10T10:10:40;4.80;;;4.40;;
938;SDS011;456;53.584;9.968;2024-01-10T10:13:09;5.10;;;4.53;;
938;SDS011;456;53.584;9.968;2024-01-10T10:15:36;5.60;;;4.60;;
938;SDS011;456;53.584;9.968;2024-01-10T10:18:02;5.73;;;3.67;;
938;SDS011;456;53.584;9.968;2024-01-10T10:20:29;4.43;;;4.03;;
938;SDS011;456;53.584;9.968;2024-01-10T10:25:36;5.47;;;4.30;;
938;SDS011;456;53.584;9.968;2024-01-10T10:28:03;5.03;;;4.47;;
938;SDS011;456;53.584;9.968;2024-01-10T10:30:32;4.70;;;4.30;;
938;SDS011;456;53.584;9.968;2024-01-10T10:32:58;4.57;;;4.17;;
938;SDS011;456;53.584;9.968;2024-01-10T10:35:24;4.30;;;3.73;;
938;SDS011;456;53.584;9.968;2024-01-10T10:37:52;5.23;;;4.73;;
938;SDS011;456;53.584;9.968;2024-01-10T10:40:21;5.57;;;4.93;;
938;SDS011;456;53.584;9.968;2024-01-10T10:42:48;4.73;;;4.30;;
938;SDS011;456;53.584;9.968;2024-01-10T10:45:15;4.83;;;4.43;;
938;SDS011;456;53.584;9.968;2024-01-10T10:47:43;5.00;;;4.50;;
938;SDS011;456;53.584;9.968;2024-01-10T10:50:12;5.80;;;5.23;;
938;SDS011;456;53.584;9.968;2024-01-10T10:52:40;5.00;;;4.60;;
938;SDS011;456;53.584;9.968;2024-01-10T10:55:09;6.73;;;5.20;;
938;SDS011;456;53.584;9.968;2024-01-10T10:57:36;5.83;;;5.23;;
938;SDS011;456;53.584;9.968;2024-01-10T11:00:03;9.10;;;7.27;;
938;SDS011;456;53.584;9.968;2024-01-10T11:02:32;7.57;;;6.77;;
938;SDS011;456;53.584;9.968;2024-01-10T11:04:58;9.23;;;6.80;;
938;SDS011;456;53.584;9.968;2024-01-10T11:07:25;7.87;;;7.03;;
938;SDS011;456;53.584;9.968;2024-01-10T11:09:52;8.53;;;7.13;;
938;SDS011;456;53.584;9.968;2024-01-10T11:12:23;8.80;;;6.93;;
938;SDS011;456;53.584;9.968;2024-01-10T11:17:44;9.63;;;7.07;;
938;SDS011;456;53.584;9.968;2024-01-10T11:25:43;7.70;;;6.40;;
938;SDS011;456;53.584;9.968;2024-01-10T11:28:10;6.43;;;5.67;;
938;SDS011;456;53.584;9.968;2024-01-10T11:30:47;7.17;;;5.47;;
938;SDS011;456;53.584;9.968;2024-01-10T11:38:32;7.67;;;5.60;;
938;SDS011;456;53.584;9.968;2024-01-10T11:40:58;7.97;;;6.10;;
938;SDS011;456;53.584;9.968;2024-01-10T11:43:23;6.67;;;5.83;;
938;SDS011;456;53.584;9.968;2024-01-10T11:45:50;8.77;;;6.07;;
938;SDS011;456;53.584;9.968;2024-01-10T11:48:17;7.43;;;5.20;;
938;SDS011;456;53.584;9.968;2024-01-10T11:50:52;6.00;;;5.40;;
938;SDS011;456;53.584;9.968;2024-01-10T11:56:14;6.70;;;6.07;;
938;SDS011;456;53.584;9.968;2024-01-10T12:01:19;6.23;;;5.50;;
938;SDS011;456;53.584;9.968;2024-01-10T12:03:46;6.73;;;6.07;;
938;SDS011;456;53.584;9.968;2024-01-10T12:06:14;5.80;;;5.30;;
938;SDS011;456;53.584;9.968;2024-01-10T12:08:40;6.03;;;5.53;;
938;SDS011;456;53.584;9.968;2024-01-10T12:11:06;6.77;;;6.00;;
938;SDS011;456;53.584;9.968;2024-01-10T12:13:33;5.00;;;4.50;;
938;SDS011;456;53.584;9.968;2024-01-10T12:15:59;6.30;;;5.40;;
938;SDS011;456;53.584;9.968;2024-01-10T12:18:25;5.77;;;5.27;;
938;SDS011;456;53.584;9.968;2024-01-10T12:20:51;5.40;;;4.67;;
938;SDS011;456;53.584;9.968;2024-01-10T12:23:17;6.20;;;5.60;;
938;SDS011;456;53.584;9.968;2024-01-10T12:25:43;5.53;;;4.90;;
938;SDS011;456;53.584;9.968;2024-01-10T12:28:09;5.30;;;4.77;;
938;SDS011;456;53.584;9.968;2024-01-10T12:30:35;5.33;;;4.83;;
938;SDS011;456;53.584;9.968;2024-01-10T12:33:01;7.90;;;5.10;;
938;SDS011;456;53.584;9.968;2024-01-10T12:35:27;5.70;;;5.10;;
938;SDS011;456;53.584;9.968;2024-01-10T12:37:54;6.33;;;5.30;;
938;SDS011;456;53.584;9.968;2024-01-10T12:40:22;4.90;;;4.47;;
938;SDS011;456;53.584;9.968;2024-01-10T12:42:48;5.40;;;4.90;;
938;SDS011;456;53.584;9.968;2024-01-10T12:45:21;5.60;;;4.93;;
938;SDS011;456;53.584;9.968;2024-01-10T12:47:47;5.60;;;4.97;;
938;SDS011;456;53.584;9.968;2024-01-10T12:50:13;5.43;;;4.90;;
938;SDS011;456;53.584;9.968;2024-01-10T12:52:42;5.10;;;4.70;;
938;SDS011;456;53.584;9.968;2024-01-10T12:55:09;5.20;;;4.70;;
938;SDS011;456;53.584;9.968;2024-01-10T12:57:35;5.20;;;4.70;;
938;SDS011;456;53.584;9.968;2024-01-10T13:00:00;4.73;;;4.33;;
938;SDS011;456;53.584;9.968;2024-01-10T13:02:31;4.73;;;4.23;;
938;SDS011;456;53.584;9.968;2024-01-10T13:05:00;5.07;;;4.60;;
938;SDS011;456;53.584;9.968;2024-01-10T13:07:26;5.40;;;4.60;;
938;SDS011;456;53.584;9.968;2024-01-10T13:09:52;5.20;;;4.80;;
938;SDS011;456;53.584;9.968;2024-01-10T13:12:19;5.40;;;4.80;;
938;SDS011;456;53.584;9.968;2024-01-10T13:14:45;4.73;;;4.33;;
938;SDS011;456;53.584;9.968;2024-01-10T13:17:11;4.50;;;4.10;;
938;SDS011;456;53.584;9.968;2024-01-10T13:19:36;3.87;;;3.50;;
938;SDS011;456;53.584;9.968;2024-01-10T13:22:02;5.27;;;4.27;;
938;SDS011;456;53.584;9.968;2024-01-10T13:24:28;4.80;;;4.40;;
938;SDS011;456;53.584;9.968;2024-01-10T13:26:54;4.17;;;3.87;;
938;SDS011;456;53.584;9.968;2024-01-10T13:29:20;4.20;;;3.90;;
938;SDS011;456;53.584;9.968;2024-01-10T13:31:46;4.63;;;4.13;;
938;SDS011;456;53.584;9.968;2024-01-10T13:34:14;5.10;;;4.60;;
938;SDS011;456;53.584;9.968;2024-01-10T13:36:40;4.37;;;4.00;;
938;SDS011;456;53.584;9.968;2024-01-10T13:39:06;5.00;;;4.60;;
938;SDS011;456;53.584;9.968;2024-01-10T13:41:32;4.50;;;3.73;;
938;SDS011;456;53.584;9.968;2024-01-10T13:43:58;4.27;;;3.87;;
938;SDS011;456;53.584;9.968;2024-01-10T13:46:24;4.43;;;4.03;;
938;SDS011;456;53.584;9.968;2024-01-10T13:48:50;4.00;;;3.70;;
938;SDS011;456;53.584;9.968;2024-01-10T13:51:16;4.37;;;3.97;;
938;SDS011;456;53.584;9.968;2024-01-10T13:53:41;4.97;;;3.93;;
938;SDS011;456;53.584;9.968;2024-01-10T13:56:07;4.10;;;3.80;;
938;SDS011;456;53.584;9.968;2024-01-10T13:58:32;3.93;;;3.50;;
938;SDS011;456;53.584;9.968;2024-01-10T14:00:58;4.43;;;4.03;;
938;SDS011;456;53.584;9.968;2024-01-10T14:03:24;4.50;;;4.00;;
938;SDS011;456;53.584;9.968;2024-01-10T14:05:50;3.83;;;3.53;;
938;SDS011;456;53.584;9.968;2024-01-10T14:08:15;3.53;;;3.27;;
938;SDS011;456;53.584;9.968;2024-01-10T14:10:41;4.30;;;3.90;;
938;SDS011;456;53.584;9.968;2024-01-10T14:13:07;4.53;;;4.13;;
938;SDS011;456;53.584;9.968;2024-01-10T14:15:33;5.00;;;4.10;;
938;SDS011;456;53.584;9.968;2024-01-10T14:17:58;3.80;;;3.50;;
938;SDS011;456;53.584;9.968;2024-01-10T14:20:24;4.33;;;4.03;;
938;SDS011;456;53.584;9.968;2024-01-10T14:22:50;4.40;;;4.00;;
938;SDS011;456;53.584;9.968;2024-01-10T14:25:16;3.87;;;3.57;;
938;SDS011;456;53.584;9.968;2024-01-10T14:27:42;4.10;;;3.70;;
938;SDS011;456;53.584;9.968;2024-01-10T14:30:08;4.30;;;3.90;;
938;SDS011;456;53.584;9.968;2024-01-10T14:32:35;4.10;;;3.70;;
938;SDS011;456;53.584;9.968;2024-01-10T14:35:01;3.70;;;3.37;;
938;SDS011;456;53.584;9.968;2024-01-10T14:37:27;3.97;;;3.67;;
938;SDS011;456;53.584;9.968;2024-01-10T14:39:53;5.33;;;4.10;;
938;SDS011;456;53.584;9.968;2024-01-10T14:42:19;3.53;;;3.23;;
938;SDS011;456;53.584;9.968;2024-01-10T14:44:45;4.47;;;4.00;;
938;SDS011;456;53.584;9.968;2024-01-10T14:47:11;4.97;;;4.57;;
938;SDS011;456;53.584;9.968;2024-01-10T14:49:37;4.10;;;3.80;;
938;SDS011;456;53.584;9.968;2024-01-10T14:52:03;5.47;;;4.20;;
938;SDS011;456;53.584;9.968;2024-01-10T14:54:29;4.37;;;4.00;;
938;SDS011;456;53.584;9.968;2024-01-10T14:56:55;4.70;;;4.30;;
938;SDS011;456;53.584;9.968;2024-01-10T14:59:21;4.07;;;3.77;;
938;SDS011;456;53.584;9.968;2024-01-10T15:01:47;4.80;;;4.20;;
938;SDS011;456;53.584;9.968;2024-01-10T15:04:13;4.13;;;3.80;;
938;SDS011;456;53.584;9.968;2024-01-10T15:06:43;4.27;;;3.97;;
938;SDS011;456;53.584;9.968;2024-01-10T15:09:09;4.20;;;3.80;;
938;SDS011;456;53.584;9.968;2024-01-10T15:11:35;4.60;;;4.20;;
938;SDS011;456;53.584;9.968;2024-01-10T15:14:01;4.20;;;3.80;;
938;SDS011;456;53.584;9.968;2024-01-10T15:16:28;5.30;;;4.60;;
938;SDS011;456;53.584;9.968;2024-01-10T15:18:54;4.60;;;4.13;;
938;SDS011;456;53.584;9.968;2024-01-10T15:21:20;4.90;;;4.50;;
938;SDS011;456;53.584;9.968;2024-01-10T15:23:46;4.80;;;4.50;;
938;SDS011;456;53.584;9.968;2024-01-10T15:26:15;5.13;;;4.73;;
938;SDS011;456;53.584;9.968;2024-01-10T15:28:43;4.63;;;4.23;;
938;SDS011;456;53.584;9.968;2024-01-10T15:31:18;4.63;;;4.23;;
938;SDS011;456;53.584;9.968;2024-01-10T15:33:44;4.77;;;4.37;;
938;SDS011;456;53.584;9.968;2024-01-10T15:36:11;4.60;;;4.20;;
938;SDS011;456;53.584;9.968;2024-01-10T15:38:39;4.20;;;3.90;;
938;SDS011;456;53.584;9.968;2024-01-10T15:41:06;4.77;;;4.37;;
938;SDS011;456;53.584;9.968;2024-01-10T15:43:33;4.70;;;4.30;;
938;SDS011;456;53.584;9.968;2024-01-10T15:45:59;5.60;;;5.10;;
938;SDS011;456;53.584;9.968;2024-01-10T15:48:25;4.80;;;4.30;;
938;SDS011;456;53.584;9.968;2024-01-10T15:50:52;4.70;;;4.30;;
938;SDS011;456;53.584;9.968;2024-01-10T15:53:18;4.70;;;4.23;;
938;SDS011;456;53.584;9.968;2024-01-10T15:55:44;4.80;;;4.40;;
938;SDS011;456;53.584;9.968;2024-01-10T15:58:10;4.37;;;4.07;;
938;SDS011;456;53.584;9.968;2024-01-10T16:00:36;5.33;;;4.83;;